createdAt,value
2018-07-27T00:01:53.414Z,23.20
2018-07-27T00:04:20.414Z,23.10
2018-07-27T00:06:47.426Z,23.10
2018-07-27T00:09:14.422Z,23.10
2018-07-27T00:11:42.139Z,23.00
2018-07-27T00:14:09.135Z,23.00
2018-07-27T00:16:36.170Z,23.00
2018-07-27T00:19:03.716Z,23.00
2018-07-27T00:21:30.737Z,22.90
2018-07-27T00:23:57.858Z,22.90
2018-07-27T00:26:24.904Z,22.90
2018-07-27T00:28:51.998Z,22.80
2018-07-27T00:31:19.114Z,22.80
2018-07-27T00:33:46.359Z,22.80
2018-07-27T00:36:13.346Z,22.80
2018-07-27T00:38:40.309Z,22.60
2018-07-27T00:41:07.317Z,22.60
2018-07-27T00:43:34.313Z,22.50
2018-07-27T00:46:01.274Z,22.50
2018-07-27T00:48:28.845Z,22.50
2018-07-27T00:50:55.831Z,22.50
2018-07-27T00:53:22.830Z,22.40
2018-07-27T00:55:49.885Z,22.40
2018-07-27T00:58:16.900Z,22.40
2018-07-27T01:00:43.903Z,22.40
2018-07-27T01:03:10.909Z,22.40
2018-07-27T01:05:37.833Z,22.40
2018-07-27T01:08:04.980Z,22.30
2018-07-27T01:10:31.953Z,22.30
2018-07-27T01:12:58.905Z,22.30
2018-07-27T01:15:25.947Z,22.30
2018-07-27T01:17:52.935Z,22.20
2018-07-27T01:20:19.876Z,22.20
2018-07-27T01:22:46.864Z,22.10
2018-07-27T01:25:13.829Z,22.10
2018-07-27T01:27:40.805Z,22.10
2018-07-27T01:30:07.803Z,22.10
2018-07-27T01:32:34.828Z,22.10
2018-07-27T01:35:01.821Z,22.10
2018-07-27T01:37:29.010Z,22.10
2018-07-27T01:39:56.010Z,22.10
2018-07-27T01:42:23.040Z,22.00
2018-07-27T01:44:50.042Z,22.00
2018-07-27T01:49:44.048Z,22.00
2018-07-27T01:52:11.190Z,21.90
2018-07-27T01:54:38.705Z,21.90
2018-07-27T01:57:05.847Z,21.90
2018-07-27T01:59:33.412Z,21.90
2018-07-27T02:02:00.870Z,21.90
2018-07-27T02:04:27.977Z,21.80
2018-07-27T02:06:55.059Z,21.80
2018-07-27T02:09:22.097Z,21.80
2018-07-27T02:11:49.142Z,21.80
2018-07-27T02:14:16.181Z,21.80
2018-07-27T02:16:43.361Z,21.80
2018-07-27T02:19:10.417Z,21.80
2018-07-27T02:21:37.505Z,21.80
2018-07-27T02:24:04.684Z,21.80
2018-07-27T02:26:31.789Z,21.80
2018-07-27T02:28:58.930Z,21.80
2018-07-27T02:33:56.411Z,21.70
2018-07-27T02:36:25.181Z,21.60
2018-07-27T02:41:19.853Z,21.50
2018-07-27T02:43:46.936Z,21.30
2018-07-27T02:46:14.116Z,21.30
2018-07-27T02:48:41.293Z,21.30
2018-07-27T02:51:08.548Z,21.40
2018-07-27T02:53:35.993Z,21.40
2018-07-27T02:56:03.396Z,21.40
2018-07-27T02:58:30.524Z,21.30
2018-07-27T03:00:57.502Z,21.40
2018-07-27T03:03:24.501Z,21.40
2018-07-27T03:05:51.483Z,21.30
2018-07-27T03:08:18.462Z,21.30
2018-07-27T03:10:45.428Z,21.40
2018-07-27T03:13:12.462Z,21.40
2018-07-27T03:15:39.519Z,21.40
2018-07-27T03:18:06.470Z,21.40
2018-07-27T03:20:33.487Z,21.40
2018-07-27T03:23:00.480Z,21.40
2018-07-27T03:25:27.476Z,21.30
2018-07-27T03:27:54.432Z,21.40
2018-07-27T03:30:22.559Z,21.40
2018-07-27T03:32:50.572Z,21.50
2018-07-27T03:35:17.585Z,21.50
2018-07-27T03:37:44.606Z,21.50
2018-07-27T03:40:11.565Z,21.50
2018-07-27T03:42:38.564Z,21.50
2018-07-27T03:45:05.870Z,21.50
2018-07-27T03:47:33.065Z,21.40
2018-07-27T03:50:00.258Z,21.30
2018-07-27T03:52:27.386Z,21.30
2018-07-27T03:54:54.538Z,21.30
2018-07-27T03:57:21.642Z,21.30
2018-07-27T03:59:48.766Z,21.30
2018-07-27T04:02:16.299Z,21.30
2018-07-27T04:04:43.361Z,21.40
2018-07-27T04:07:10.499Z,21.30
2018-07-27T04:09:37.616Z,21.30
2018-07-27T04:12:04.875Z,21.30
2018-07-27T04:14:32.279Z,21.40
2018-07-27T04:16:59.242Z,21.50
2018-07-27T04:19:26.410Z,21.60
2018-07-27T04:21:53.482Z,21.50
2018-07-27T04:24:20.522Z,21.50
2018-07-27T04:26:47.559Z,21.50
2018-07-27T04:29:15.953Z,21.70
2018-07-27T04:31:44.494Z,21.70
2018-07-27T04:34:13.342Z,21.70
2018-07-27T04:39:16.519Z,21.70
2018-07-27T04:41:47.864Z,21.70
2018-07-27T04:44:19.465Z,21.80
2018-07-27T04:46:49.145Z,21.80
2018-07-27T04:49:19.026Z,21.80
2018-07-27T04:51:54.178Z,21.90
2018-07-27T04:54:25.838Z,22.00
2018-07-27T04:56:56.863Z,22.00
2018-07-27T04:59:25.284Z,22.00
2018-07-27T05:01:53.399Z,22.10
2018-07-27T05:04:20.604Z,22.20
2018-07-27T05:06:47.708Z,22.40
2018-07-27T05:09:20.042Z,22.50
2018-07-27T05:11:47.558Z,22.90
2018-07-27T05:14:16.002Z,23.30
2018-07-27T05:16:43.509Z,23.50
2018-07-27T05:19:10.988Z,24.00
2018-07-27T05:21:39.825Z,24.30
2018-07-27T05:24:08.364Z,24.60
2018-07-27T05:26:35.790Z,24.80
2018-07-27T05:29:02.770Z,24.10
2018-07-27T05:31:30.400Z,24.10
2018-07-27T05:33:57.862Z,24.10
2018-07-27T05:36:24.792Z,24.00
2018-07-27T05:38:52.190Z,24.30
2018-07-27T05:41:20.090Z,24.60
2018-07-27T05:43:48.449Z,24.70
2018-07-27T05:46:15.670Z,24.60
2018-07-27T05:48:42.847Z,24.60
2018-07-27T05:51:09.951Z,24.50
2018-07-27T05:53:37.000Z,24.60
2018-07-27T05:56:04.105Z,24.80
2018-07-27T05:58:31.244Z,24.90
2018-07-27T06:00:58.303Z,24.70
2018-07-27T06:03:25.779Z,24.70
2018-07-27T06:13:14.740Z,25.70
2018-07-27T06:15:41.806Z,25.70
2018-07-27T06:20:35.896Z,25.70
2018-07-27T06:23:02.904Z,26.00
2018-07-27T06:25:30.314Z,26.10
2018-07-27T06:27:57.429Z,26.40
2018-07-27T06:30:24.571Z,26.60
2018-07-27T06:32:51.766Z,27.10
2018-07-27T06:35:18.845Z,27.40
2018-07-27T06:37:45.874Z,27.50
2018-07-27T06:40:13.009Z,28.00
2018-07-27T06:42:40.204Z,28.50
2018-07-27T06:45:07.475Z,28.50
2018-07-27T06:47:34.662Z,28.60
2018-07-27T06:54:56.791Z,29.50
2018-07-27T06:57:23.850Z,30.10
2018-07-27T06:59:51.738Z,30.70
2018-07-27T07:02:18.834Z,30.90
2018-07-27T20:27:51.273Z,32.60
2018-07-27T20:30:18.274Z,26.10
2018-07-27T20:32:45.331Z,25.80
2018-07-27T20:35:12.326Z,25.80
2018-07-27T20:37:39.286Z,25.70
2018-07-27T20:40:06.923Z,25.60
2018-07-27T20:42:33.888Z,25.60
2018-07-27T20:45:00.914Z,25.50
2018-07-27T20:47:27.964Z,25.40
2018-07-27T20:49:54.957Z,25.40
2018-07-27T20:52:22.187Z,25.30
2018-07-27T20:54:49.185Z,25.20
2018-07-27T20:57:16.184Z,25.10
2018-07-27T20:59:43.144Z,25.20
2018-07-27T21:02:10.117Z,25.00
2018-07-27T21:04:37.133Z,25.00
2018-07-27T21:07:04.132Z,25.00
2018-07-27T21:09:31.110Z,24.90
2018-07-27T21:11:58.117Z,24.90
2018-07-27T21:14:25.585Z,24.70
2018-07-27T21:16:52.541Z,24.70
2018-07-27T21:19:19.533Z,24.70
2018-07-27T21:21:46.638Z,24.60
2018-07-27T21:24:13.615Z,24.50
2018-07-27T21:26:40.530Z,24.50
2018-07-27T21:29:07.520Z,24.60
2018-07-27T21:31:34.445Z,24.60
2018-07-27T21:34:01.436Z,24.50
2018-07-27T21:36:28.802Z,24.50
2018-07-27T21:38:55.712Z,24.40
2018-07-27T21:41:22.645Z,24.40
2018-07-27T21:43:49.592Z,24.30
2018-07-27T21:46:16.574Z,24.30
2018-07-27T21:48:43.525Z,24.20
2018-07-27T21:51:10.504Z,24.10
2018-07-27T21:53:37.476Z,24.00
2018-07-27T21:56:04.721Z,23.90
2018-07-27T21:58:31.762Z,23.90
2018-07-27T22:00:58.775Z,23.90
2018-07-27T22:03:25.776Z,23.90
2018-07-27T22:05:52.785Z,23.90
2018-07-27T22:08:19.762Z,23.80
2018-07-27T22:10:46.786Z,23.80
2018-07-27T22:13:14.100Z,23.80
2018-07-27T22:15:41.090Z,23.80
2018-07-27T22:18:08.086Z,23.80
2018-07-27T22:20:35.149Z,23.80
2018-07-27T22:23:02.138Z,23.70
2018-07-27T22:25:29.136Z,23.70
2018-07-27T22:27:56.096Z,23.70
2018-07-27T22:30:23.128Z,23.70
2018-07-27T22:32:50.069Z,23.60
2018-07-27T22:35:17.427Z,23.60
2018-07-27T22:37:44.406Z,23.60
2018-07-27T22:40:11.438Z,23.60
2018-07-27T22:42:38.712Z,23.60
2018-07-27T22:45:06.841Z,23.50
2018-07-27T22:47:33.932Z,23.50
2018-07-27T22:50:00.969Z,23.50
2018-07-27T22:52:32.555Z,23.50
2018-07-27T22:54:59.526Z,23.40
2018-07-27T22:57:26.513Z,23.30
2018-07-27T22:59:53.515Z,23.30
2018-07-27T23:02:20.549Z,23.30
2018-07-27T23:04:47.540Z,23.20
2018-07-27T23:07:14.533Z,23.20
2018-07-27T23:09:41.536Z,23.10
2018-07-27T23:12:08.589Z,23.10
2018-07-27T23:17:09.615Z,23.00
2018-07-27T23:19:36.627Z,23.00
2018-07-27T23:22:03.664Z,23.00
2018-07-27T23:24:30.648Z,22.90
2018-07-27T23:26:57.638Z,22.90
2018-07-27T23:29:24.643Z,22.90
2018-07-27T23:31:51.641Z,22.90
2018-07-27T23:34:18.581Z,22.90
2018-07-27T23:36:45.590Z,22.90
2018-07-27T23:39:13.516Z,22.80
2018-07-27T23:41:40.564Z,22.80
2018-07-27T23:44:07.533Z,22.80
2018-07-27T23:46:34.486Z,22.70
2018-07-27T23:49:01.456Z,22.70
2018-07-27T23:51:28.410Z,22.70
2018-07-27T23:53:55.609Z,22.70
2018-07-27T23:56:22.624Z,22.60
2018-07-27T23:58:49.602Z,22.60
